sensor_id;sensor_type;location;lat;lon;timestamp;temperature;humidity
78463;SHT31;67756;51.982;5.648;2023-04-01T00:02:19;11.4;83.9
78463;SHT31;67756;51.982;5.648;2023-04-01T00:04:49;11.4;83.9
78463;SHT31;67756;51.982;5.648;2023-04-01T00:07:20;11.5;83.6
78463;SHT31;67756;51.982;5.648;2023-04-01T00:09:49;11.5;83.4
78463;SHT31;67756;51.982;5.648;2023-04-01T00:12:19;11.5;83.8
78463;SHT31;67756;51.982;5.648;2023-04-01T00:14:48;11.5;83.7
78463;SHT31;67756;51.982;5.648;2023-04-01T00:17:18;11.5;83.5
78463;SHT31;67756;51.982;5.648;2023-04-01T00:19:48;11.5;83.5
78463;SHT31;67756;51.982;5.648;2023-04-01T00:22:20;11.5;83.5
78463;SHT31;67756;51.982;5.648;2023-04-01T00:24:50;11.5;83.3
78463;SHT31;67756;51.982;5.648;2023-04-01T00:27:19;11.5;83.5
78463;SHT31;67756;51.982;5.648;2023-04-01T00:29:51;11.5;83.4
78463;SHT31;67756;51.982;5.648;2023-04-01T00:32:20;11.5;83.6
78463;SHT31;67756;51.982;5.648;2023-04-01T00:34:52;11.5;83.5
78463;SHT31;67756;51.982;5.648;2023-04-01T00:37:21;11.6;83.5
78463;SHT31;67756;51.982;5.648;2023-04-01T00:39:51;11.6;83.3
78463;SHT31;67756;51.982;5.648;2023-04-01T00:42:21;11.6;83.4
78463;SHT31;67756;51.982;5.648;2023-04-01T00:44:54;11.6;83.0
78463;SHT31;67756;51.982;5.648;2023-04-01T00:47:27;11.6;82.9
78463;SHT31;67756;51.982;5.648;2023-04-01T00:49:56;11.6;83.1
78463;SHT31;67756;51.982;5.648;2023-04-01T00:52:27;11.7;83.0
78463;SHT31;67756;51.982;5.648;2023-04-01T00:54:59;11.7;83.0
78463;SHT31;67756;51.982;5.648;2023-04-01T00:57:34;11.7;82.9
78463;SHT31;67756;51.982;5.648;2023-04-01T01:00:09;11.7;82.9
78463;SHT31;67756;51.982;5.648;2023-04-01T01:02:43;11.7;82.8
78463;SHT31;67756;51.982;5.648;2023-04-01T01:05:14;11.7;83.1
78463;SHT31;67756;51.982;5.648;2023-04-01T01:07:48;11.7;83.1
78463;SHT31;67756;51.982;5.648;2023-04-01T01:10:24;11.8;82.9
78463;SHT31;67756;51.982;5.648;2023-04-01T01:13:07;11.8;82.8
78463;SHT31;67756;51.982;5.648;2023-04-01T01:15:44;11.8;82.5
78463;SHT31;67756;51.982;5.648;2023-04-01T01:18:20;11.8;82.8
78463;SHT31;67756;51.982;5.648;2023-04-01T01:21:11;11.8;82.9
78463;SHT31;67756;51.982;5.648;2023-04-01T01:24:09;11.8;82.6
78463;SHT31;67756;51.982;5.648;2023-04-01T01:27:04;11.8;82.3
78463;SHT31;67756;51.982;5.648;2023-04-01T01:29:42;11.9;82.2
78463;SHT31;67756;51.982;5.648;2023-04-01T01:32:23;11.9;81.9
78463;SHT31;67756;51.982;5.648;2023-04-01T01:35:04;11.9;81.6
78463;SHT31;67756;51.982;5.648;2023-04-01T01:37:35;11.9;81.3
78463;SHT31;67756;51.982;5.648;2023-04-01T01:40:09;11.9;81.2
78463;SHT31;67756;51.982;5.648;2023-04-01T01:42:44;11.8;81.0
78463;SHT31;67756;51.982;5.648;2023-04-01T01:45:19;11.8;81.2
78463;SHT31;67756;51.982;5.648;2023-04-01T01:47:51;11.8;81.2
78463;SHT31;67756;51.982;5.648;2023-04-01T01:50:21;11.8;80.5
78463;SHT31;67756;51.982;5.648;2023-04-01T01:53:03;11.8;80.8
78463;SHT31;67756;51.982;5.648;2023-04-01T01:55:35;11.8;80.6
78463;SHT31;67756;51.982;5.648;2023-04-01T01:58:09;11.8;80.5
78463;SHT31;67756;51.982;5.648;2023-04-01T02:00:45;11.8;80.3
78463;SHT31;67756;51.982;5.648;2023-04-01T02:03:17;11.8;80.5
78463;SHT31;67756;51.982;5.648;2023-04-01T02:05:51;11.8;80.4
78463;SHT31;67756;51.982;5.648;2023-04-01T02:08:26;11.8;80.3
78463;SHT31;67756;51.982;5.648;2023-04-01T02:11:00;11.7;80.7
78463;SHT31;67756;51.982;5.648;2023-04-01T02:13:35;11.7;80.8
78463;SHT31;67756;51.982;5.648;2023-04-01T02:16:13;11.7;80.7
78463;SHT31;67756;51.982;5.648;2023-04-01T02:18:48;11.7;80.6
78463;SHT31;67756;51.982;5.648;2023-04-01T02:21:22;11.7;81.1
78463;SHT31;67756;51.982;5.648;2023-04-01T02:23:56;11.7;81.3
78463;SHT31;67756;51.982;5.648;2023-04-01T02:26:27;11.7;81.3
78463;SHT31;67756;51.982;5.648;2023-04-01T02:28:59;11.6;81.2
78463;SHT31;67756;51.982;5.648;2023-04-01T02:31:32;11.6;81.4
78463;SHT31;67756;51.982;5.648;2023-04-01T02:34:03;11.6;81.6
78463;SHT31;67756;51.982;5.648;2023-04-01T02:36:35;11.6;81.5
78463;SHT31;67756;51.982;5.648;2023-04-01T02:39:05;11.6;81.0
78463;SHT31;67756;51.982;5.648;2023-04-01T02:41:40;11.6;81.3
78463;SHT31;67756;51.982;5.648;2023-04-01T02:44:11;11.5;81.6
78463;SHT31;67756;51.982;5.648;2023-04-01T02:46:42;11.5;81.6
78463;SHT31;67756;51.982;5.648;2023-04-01T02:49:11;11.5;81.7
78463;SHT31;67756;51.982;5.648;2023-04-01T02:51:41;11.5;81.4
78463;SHT31;67756;51.982;5.648;2023-04-01T02:54:11;11.5;81.3
78463;SHT31;67756;51.982;5.648;2023-04-01T02:56:40;11.5;81.7
78463;SHT31;67756;51.982;5.648;2023-04-01T02:59:10;11.5;81.9
78463;SHT31;67756;51.982;5.648;2023-04-01T03:01:39;11.5;81.6
78463;SHT31;67756;51.982;5.648;2023-04-01T03:04:09;11.5;81.4
78463;SHT31;67756;51.982;5.648;2023-04-01T03:06:40;11.5;81.6
78463;SHT31;67756;51.982;5.648;2023-04-01T03:09:10;11.5;82.0
78463;SHT31;67756;51.982;5.648;2023-04-01T03:11:40;11.5;81.5
78463;SHT31;67756;51.982;5.648;2023-04-01T03:14:10;11.5;81.4
78463;SHT31;67756;51.982;5.648;2023-04-01T03:16:39;11.4;81.4
78463;SHT31;67756;51.982;5.648;2023-04-01T03:19:09;11.4;81.4
78463;SHT31;67756;51.982;5.648;2023-04-01T03:21:38;11.4;81.7
78463;SHT31;67756;51.982;5.648;2023-04-01T03:24:08;11.4;81.8
78463;SHT31;67756;51.982;5.648;2023-04-01T03:26:38;11.5;81.6
78463;SHT31;67756;51.982;5.648;2023-04-01T03:29:07;11.5;81.2
78463;SHT31;67756;51.982;5.648;2023-04-01T03:31:37;11.5;81.3
78463;SHT31;67756;51.982;5.648;2023-04-01T03:34:06;11.5;81.2
78463;SHT31;67756;51.982;5.648;2023-04-01T03:36:36;11.5;81.3
78463;SHT31;67756;51.982;5.648;2023-04-01T03:39:06;11.5;81.1
78463;SHT31;67756;51.982;5.648;2023-04-01T03:41:37;11.5;81.2
78463;SHT31;67756;51.982;5.648;2023-04-01T03:44:07;11.5;81.5
78463;SHT31;67756;51.982;5.648;2023-04-01T03:46:36;11.5;81.3
78463;SHT31;67756;51.982;5.648;2023-04-01T03:49:09;11.5;81.4
78463;SHT31;67756;51.982;5.648;2023-04-01T03:51:41;11.5;81.3
78463;SHT31;67756;51.982;5.648;2023-04-01T03:54:11;11.4;81.6
78463;SHT31;67756;51.982;5.648;2023-04-01T03:56:40;11.4;81.4
78463;SHT31;67756;51.982;5.648;2023-04-01T03:59:10;11.4;81.5
78463;SHT31;67756;51.982;5.648;2023-04-01T04:01:40;11.5;81.5
78463;SHT31;67756;51.982;5.648;2023-04-01T04:04:10;11.5;81.3
78463;SHT31;67756;51.982;5.648;2023-04-01T04:06:40;11.4;81.3
78463;SHT31;67756;51.982;5.648;2023-04-01T04:09:10;11.4;81.6
78463;SHT31;67756;51.982;5.648;2023-04-01T04:11:41;11.4;81.5
78463;SHT31;67756;51.982;5.648;2023-04-01T04:14:11;11.5;81.4
78463;SHT31;67756;51.982;5.648;2023-04-01T04:16:40;11.5;81.5
78463;SHT31;67756;51.982;5.648;2023-04-01T04:19:10;11.5;81.4
78463;SHT31;67756;51.982;5.648;2023-04-01T04:21:39;11.4;81.5
78463;SHT31;67756;51.982;5.648;2023-04-01T04:24:09;11.4;81.8
78463;SHT31;67756;51.982;5.648;2023-04-01T04:26:39;11.4;81.9
78463;SHT31;67756;51.982;5.648;2023-04-01T04:29:08;11.4;81.9
78463;SHT31;67756;51.982;5.648;2023-04-01T04:31:40;11.4;82.2
78463;SHT31;67756;51.982;5.648;2023-04-01T04:34:10;11.4;82.2
78463;SHT31;67756;51.982;5.648;2023-04-01T04:36:42;11.5;82.1
78463;SHT31;67756;51.982;5.648;2023-04-01T04:39:12;11.5;82.0
78463;SHT31;67756;51.982;5.648;2023-04-01T04:41:42;11.5;82.1
78463;SHT31;67756;51.982;5.648;2023-04-01T04:44:13;11.5;81.9
78463;SHT31;67756;51.982;5.648;2023-04-01T04:46:43;11.5;81.7
78463;SHT31;67756;51.982;5.648;2023-04-01T04:49:15;11.6;81.8
78463;SHT31;67756;51.982;5.648;2023-04-01T04:51:44;11.6;81.8
78463;SHT31;67756;51.982;5.648;2023-04-01T04:54:16;11.6;81.8
78463;SHT31;67756;51.982;5.648;2023-04-01T04:56:45;11.6;81.7
78463;SHT31;67756;51.982;5.648;2023-04-01T04:59:15;11.6;81.6
78463;SHT31;67756;51.982;5.648;2023-04-01T05:01:44;11.6;81.6
78463;SHT31;67756;51.982;5.648;2023-04-01T05:04:14;11.6;81.6
78463;SHT31;67756;51.982;5.648;2023-04-01T05:06:44;11.6;81.6
78463;SHT31;67756;51.982;5.648;2023-04-01T05:09:14;11.7;81.5
78463;SHT31;67756;51.982;5.648;2023-04-01T05:11:44;11.7;81.6
78463;SHT31;67756;51.982;5.648;2023-04-01T05:14:15;11.7;81.6
78463;SHT31;67756;51.982;5.648;2023-04-01T05:16:45;11.7;81.7
78463;SHT31;67756;51.982;5.648;2023-04-01T05:19:16;11.7;81.5
78463;SHT31;67756;51.982;5.648;2023-04-01T05:21:48;11.7;81.6
78463;SHT31;67756;51.982;5.648;2023-04-01T05:24:17;11.7;81.4
78463;SHT31;67756;51.982;5.648;2023-04-01T05:26:47;11.7;81.6
78463;SHT31;67756;51.982;5.648;2023-04-01T05:29:16;11.7;81.5
78463;SHT31;67756;51.982;5.648;2023-04-01T05:31:48;11.7;81.7
78463;SHT31;67756;51.982;5.648;2023-04-01T05:34:17;11.7;81.7
78463;SHT31;67756;51.982;5.648;2023-04-01T05:36:49;11.7;81.9
78463;SHT31;67756;51.982;5.648;2023-04-01T05:39:19;11.8;82.0
78463;SHT31;67756;51.982;5.648;2023-04-01T05:41:50;11.8;81.9
78463;SHT31;67756;51.982;5.648;2023-04-01T05:44:22;11.8;81.9
78463;SHT31;67756;51.982;5.648;2023-04-01T05:46:52;11.8;82.1
78463;SHT31;67756;51.982;5.648;2023-04-01T05:49:21;11.8;82.1
78463;SHT31;67756;51.982;5.648;2023-04-01T05:51:51;11.8;81.9
78463;SHT31;67756;51.982;5.648;2023-04-01T05:54:20;11.8;82.0
78463;SHT31;67756;51.982;5.648;2023-04-01T05:56:50;11.8;82.0
78463;SHT31;67756;51.982;5.648;2023-04-01T05:59:20;11.8;82.0
78463;SHT31;67756;51.982;5.648;2023-04-01T06:01:51;11.8;82.0
78463;SHT31;67756;51.982;5.648;2023-04-01T06:04:21;11.8;82.1
78463;SHT31;67756;51.982;5.648;2023-04-01T06:06:51;11.8;82.1
78463;SHT31;67756;51.982;5.648;2023-04-01T06:09:28;11.9;82.1
78463;SHT31;67756;51.982;5.648;2023-04-01T06:12:27;11.9;82.1
78463;SHT31;67756;51.982;5.648;2023-04-01T06:15:16;11.9;82.1
78463;SHT31;67756;51.982;5.648;2023-04-01T06:18:45;11.9;82.1
78463;SHT31;67756;51.982;5.648;2023-04-01T06:22:03;11.9;82.0
78463;SHT31;67756;51.982;5.648;2023-04-01T06:24:52;11.9;82.0
78463;SHT31;67756;51.982;5.648;2023-04-01T06:27:39;11.9;82.2
78463;SHT31;67756;51.982;5.648;2023-04-01T06:30:33;11.9;82.3
78463;SHT31;67756;51.982;5.648;2023-04-01T06:33:22;11.9;82.5
78463;SHT31;67756;51.982;5.648;2023-04-01T06:36:17;11.9;82.5
78463;SHT31;67756;51.982;5.648;2023-04-01T06:39:02;11.9;82.5
78463;SHT31;67756;51.982;5.648;2023-04-01T06:41:53;11.9;82.5
78463;SHT31;67756;51.982;5.648;2023-04-01T06:44:31;11.9;82.3
78463;SHT31;67756;51.982;5.648;2023-04-01T06:47:19;11.9;82.1
78463;SHT31;67756;51.982;5.648;2023-04-01T06:49:55;11.9;82.1
78463;SHT31;67756;51.982;5.648;2023-04-01T06:52:36;12.0;82.0
78463;SHT31;67756;51.982;5.648;2023-04-01T06:55:20;12.0;81.9
78463;SHT31;67756;51.982;5.648;2023-04-01T06:57:55;12.0;81.9
78463;SHT31;67756;51.982;5.648;2023-04-01T07:00:30;12.0;82.1
78463;SHT31;67756;51.982;5.648;2023-04-01T07:03:08;12.0;82.1
78463;SHT31;67756;51.982;5.648;2023-04-01T07:05:41;12.0;82.1
78463;SHT31;67756;51.982;5.648;2023-04-01T07:08:15;12.0;81.8
78463;SHT31;67756;51.982;5.648;2023-04-01T07:10:50;12.0;81.8
78463;SHT31;67756;51.982;5.648;2023-04-01T07:13:29;12.0;82.1
78463;SHT31;67756;51.982;5.648;2023-04-01T07:16:06;12.0;82.0
78463;SHT31;67756;51.982;5.648;2023-04-01T07:18:42;12.0;81.9
78463;SHT31;67756;51.982;5.648;2023-04-01T07:21:21;12.0;82.4
78463;SHT31;67756;51.982;5.648;2023-04-01T07:23:54;12.0;82.0
78463;SHT31;67756;51.982;5.648;2023-04-01T07:26:28;12.0;82.4
78463;SHT31;67756;51.982;5.648;2023-04-01T07:28:57;12.0;82.5
78463;SHT31;67756;51.982;5.648;2023-04-01T07:31:59;12.0;82.4
78463;SHT31;67756;51.982;5.648;2023-04-01T07:34:40;12.0;82.3
78463;SHT31;67756;51.982;5.648;2023-04-01T07:37:17;12.0;82.7
78463;SHT31;67756;51.982;5.648;2023-04-01T07:39:57;12.0;82.5
78463;SHT31;67756;51.982;5.648;2023-04-01T07:42:40;12.0;82.6
78463;SHT31;67756;51.982;5.648;2023-04-01T07:45:19;12.0;82.9
78463;SHT31;67756;51.982;5.648;2023-04-01T07:48:04;12.0;82.7
78463;SHT31;67756;51.982;5.648;2023-04-01T07:50:43;12.0;82.8
78463;SHT31;67756;51.982;5.648;2023-04-01T07:53:25;12.0;82.7
78463;SHT31;67756;51.982;5.648;2023-04-01T07:56:01;12.1;82.4
78463;SHT31;67756;51.982;5.648;2023-04-01T07:58:42;12.1;82.0
78463;SHT31;67756;51.982;5.648;2023-04-01T08:01:23;12.1;82.0
78463;SHT31;67756;51.982;5.648;2023-04-01T08:04:10;12.1;81.6
78463;SHT31;67756;51.982;5.648;2023-04-01T08:06:49;12.1;81.5
78463;SHT31;67756;51.982;5.648;2023-04-01T08:09:29;12.1;81.1
78463;SHT31;67756;51.982;5.648;2023-04-01T08:12:17;12.1;81.4
78463;SHT31;67756;51.982;5.648;2023-04-01T08:14:55;12.1;81.9
78463;SHT31;67756;51.982;5.648;2023-04-01T08:17:38;12.1;82.4
78463;SHT31;67756;51.982;5.648;2023-04-01T08:20:29;12.2;82.3
78463;SHT31;67756;51.982;5.648;2023-04-01T08:23:07;12.2;82.0
78463;SHT31;67756;51.982;5.648;2023-04-01T08:25:44;12.2;82.1
78463;SHT31;67756;51.982;5.648;2023-04-01T08:28:19;12.2;81.7
78463;SHT31;67756;51.982;5.648;2023-04-01T08:30:53;12.2;81.8
78463;SHT31;67756;51.982;5.648;2023-04-01T08:33:27;12.2;82.5
78463;SHT31;67756;51.982;5.648;2023-04-01T08:36:03;12.2;82.2
78463;SHT31;67756;51.982;5.648;2023-04-01T08:38:38;12.2;82.4
78463;SHT31;67756;51.982;5.648;2023-04-01T08:41:32;12.2;82.9
78463;SHT31;67756;51.982;5.648;2023-04-01T08:44:32;12.2;82.9
78463;SHT31;67756;51.982;5.648;2023-04-01T08:47:20;12.2;82.9
78463;SHT31;67756;51.982;5.648;2023-04-01T08:51:04;12.2;82.8
78463;SHT31;67756;51.982;5.648;2023-04-01T08:53:52;12.2;82.6
78463;SHT31;67756;51.982;5.648;2023-04-01T08:56:33;12.2;82.9
78463;SHT31;67756;51.982;5.648;2023-04-01T08:59:15;12.2;83.0
78463;SHT31;67756;51.982;5.648;2023-04-01T09:02:21;12.2;83.3
78463;SHT31;67756;51.982;5.648;2023-04-01T09:05:11;12.3;82.7
78463;SHT31;67756;51.982;5.648;2023-04-01T09:07:54;12.3;82.3
78463;SHT31;67756;51.982;5.648;2023-04-01T09:12:06;12.3;82.0
78463;SHT31;67756;51.982;5.648;2023-04-01T09:15:01;12.3;82.3
78463;SHT31;67756;51.982;5.648;2023-04-01T09:17:53;12.3;82.7
78463;SHT31;67756;51.982;5.648;2023-04-01T09:21:02;12.4;82.8
78463;SHT31;67756;51.982;5.648;2023-04-01T09:23:55;12.4;83.1
78463;SHT31;67756;51.982;5.648;2023-04-01T09:26:51;12.4;83.1
78463;SHT31;67756;51.982;5.648;2023-04-01T09:29:43;12.5;83.2
78463;SHT31;67756;51.982;5.648;2023-04-01T09:32:45;12.5;82.8
78463;SHT31;67756;51.982;5.648;2023-04-01T09:35:22;12.6;82.5
78463;SHT31;67756;51.982;5.648;2023-04-01T09:38:00;12.6;81.5
78463;SHT31;67756;51.982;5.648;2023-04-01T09:40:43;12.6;82.1
78463;SHT31;67756;51.982;5.648;2023-04-01T09:43:27;12.6;82.1
78463;SHT31;67756;51.982;5.648;2023-04-01T09:46:11;12.6;81.8
78463;SHT31;67756;51.982;5.648;2023-04-01T09:49:13;12.7;82.1
78463;SHT31;67756;51.982;5.648;2023-04-01T09:51:53;12.7;82.0
78463;SHT31;67756;51.982;5.648;2023-04-01T09:54:46;12.7;81.8
78463;SHT31;67756;51.982;5.648;2023-04-01T10:01:47;12.8;83.5
78463;SHT31;67756;51.982;5.648;2023-04-01T10:04:58;12.8;82.9
78463;SHT31;67756;51.982;5.648;2023-04-01T10:09:05;12.9;83.2
78463;SHT31;67756;51.982;5.648;2023-04-01T10:16:16;13.1;83.5
78463;SHT31;67756;51.982;5.648;2023-04-01T10:19:16;13.2;82.2
78463;SHT31;67756;51.982;5.648;2023-04-01T10:22:17;13.3;80.1
78463;SHT31;67756;51.982;5.648;2023-04-01T10:25:15;13.3;80.3
78463;SHT31;67756;51.982;5.648;2023-04-01T10:28:21;13.4;81.1
78463;SHT31;67756;51.982;5.648;2023-04-01T10:31:18;13.4;83.1
78463;SHT31;67756;51.982;5.648;2023-04-01T10:49:40;14.0;78.2
78463;SHT31;67756;51.982;5.648;2023-04-01T10:52:38;14.1;77.3
78463;SHT31;67756;51.982;5.648;2023-04-01T10:55:20;14.1;77.9
78463;SHT31;67756;51.982;5.648;2023-04-01T10:58:32;14.1;76.7
78463;SHT31;67756;51.982;5.648;2023-04-01T11:05:28;14.3;76.1
78463;SHT31;67756;51.982;5.648;2023-04-01T11:08:49;14.3;77.2
78463;SHT31;67756;51.982;5.648;2023-04-01T11:12:20;14.3;76.4
78463;SHT31;67756;51.982;5.648;2023-04-01T11:15:20;14.2;76.8
78463;SHT31;67756;51.982;5.648;2023-04-01T11:18:19;14.2;77.1
78463;SHT31;67756;51.982;5.648;2023-04-01T11:22:36;14.1;77.3
78463;SHT31;67756;51.982;5.648;2023-04-01T11:25:23;14.1;77.6
78463;SHT31;67756;51.982;5.648;2023-04-01T11:29:00;14.1;78.3
78463;SHT31;67756;51.982;5.648;2023-04-01T11:31:45;14.1;78.4
78463;SHT31;67756;51.982;5.648;2023-04-01T11:34:35;14.1;77.3
78463;SHT31;67756;51.982;5.648;2023-04-01T11:37:19;14.1;78.2
78463;SHT31;67756;51.982;5.648;2023-04-01T11:40:05;14.1;79.9
78463;SHT31;67756;51.982;5.648;2023-04-01T11:42:46;14.1;79.0
78463;SHT31;67756;51.982;5.648;2023-04-01T11:45:38;14.2;78.4
78463;SHT31;67756;51.982;5.648;2023-04-01T11:48:23;14.2;75.0
78463;SHT31;67756;51.982;5.648;2023-04-01T11:51:07;14.2;75.7
78463;SHT31;67756;51.982;5.648;2023-04-01T11:53:49;14.2;76.2
78463;SHT31;67756;51.982;5.648;2023-04-01T11:56:42;14.2;77.2
78463;SHT31;67756;51.982;5.648;2023-04-01T11:59:29;14.1;77.7
78463;SHT31;67756;51.982;5.648;2023-04-01T12:02:15;14.1;78.1
78463;SHT31;67756;51.982;5.648;2023-04-01T12:04:55;14.1;78.7
78463;SHT31;67756;51.982;5.648;2023-04-01T12:08:19;14.0;78.2
78463;SHT31;67756;51.982;5.648;2023-04-01T12:10:57;14.0;78.5
78463;SHT31;67756;51.982;5.648;2023-04-01T12:13:39;14.0;78.8
78463;SHT31;67756;51.982;5.648;2023-04-01T12:16:28;13.9;78.6
78463;SHT31;67756;51.982;5.648;2023-04-01T12:19:08;13.9;78.2
78463;SHT31;67756;51.982;5.648;2023-04-01T12:21:48;13.9;78.9
78463;SHT31;67756;51.982;5.648;2023-04-01T12:24:38;13.9;79.4
78463;SHT31;67756;51.982;5.648;2023-04-01T12:27:29;13.9;79.4
78463;SHT31;67756;51.982;5.648;2023-04-01T12:30:55;14.0;79.0
78463;SHT31;67756;51.982;5.648;2023-04-01T12:33:50;14.0;78.3
78463;SHT31;67756;51.982;5.648;2023-04-01T12:36:56;14.0;79.0
78463;SHT31;67756;51.982;5.648;2023-04-01T12:39:42;14.0;78.3
78463;SHT31;67756;51.982;5.648;2023-04-01T12:42:28;14.0;78.5
78463;SHT31;67756;51.982;5.648;2023-04-01T12:45:15;14.0;79.0
78463;SHT31;67756;51.982;5.648;2023-04-01T12:48:13;14.1;78.8
78463;SHT31;67756;51.982;5.648;2023-04-01T12:51:15;14.1;77.4
78463;SHT31;67756;51.982;5.648;2023-04-01T12:54:07;14.1;77.2
78463;SHT31;67756;51.982;5.648;2023-04-01T12:56:50;14.1;78.5
78463;SHT31;67756;51.982;5.648;2023-04-01T12:59:44;14.1;78.1
78463;SHT31;67756;51.982;5.648;2023-04-01T13:02:30;14.1;78.6
78463;SHT31;67756;51.982;5.648;2023-04-01T13:05:27;14.1;77.7
78463;SHT31;67756;51.982;5.648;2023-04-01T13:08:10;14.1;78.7
78463;SHT31;67756;51.982;5.648;2023-04-01T13:11:00;14.1;77.2
78463;SHT31;67756;51.982;5.648;2023-04-01T13:13:50;14.1;78.6
78463;SHT31;67756;51.982;5.648;2023-04-01T13:16:26;14.1;78.4
78463;SHT31;67756;51.982;5.648;2023-04-01T13:19:03;14.1;78.2
78463;SHT31;67756;51.982;5.648;2023-04-01T13:21:46;14.1;77.9
78463;SHT31;67756;51.982;5.648;2023-04-01T13:24:35;14.1;78.8
78463;SHT31;67756;51.982;5.648;2023-04-01T13:27:12;14.1;78.6
78463;SHT31;67756;51.982;5.648;2023-04-01T13:29:51;14.1;77.2
78463;SHT31;67756;51.982;5.648;2023-04-01T13:32:34;14.1;78.2
78463;SHT31;67756;51.982;5.648;2023-04-01T13:35:23;14.0;78.7
78463;SHT31;67756;51.982;5.648;2023-04-01T13:38:05;14.0;78.2
78463;SHT31;67756;51.982;5.648;2023-04-01T13:40:43;14.0;78.5
78463;SHT31;67756;51.982;5.648;2023-04-01T13:43:20;13.9;79.6
78463;SHT31;67756;51.982;5.648;2023-04-01T13:46:09;13.9;78.9
78463;SHT31;67756;51.982;5.648;2023-04-01T13:49:00;13.9;79.4
78463;SHT31;67756;51.982;5.648;2023-04-01T13:52:04;13.9;80.0
78463;SHT31;67756;51.982;5.648;2023-04-01T13:54:53;13.9;79.7
78463;SHT31;67756;51.982;5.648;2023-04-01T13:57:43;13.9;80.1
78463;SHT31;67756;51.982;5.648;2023-04-01T14:00:46;13.9;80.2
78463;SHT31;67756;51.982;5.648;2023-04-01T14:03:30;13.9;80.7
78463;SHT31;67756;51.982;5.648;2023-04-01T14:06:28;13.9;80.0
78463;SHT31;67756;51.982;5.648;2023-04-01T14:10:20;13.9;79.7
78463;SHT31;67756;51.982;5.648;2023-04-01T14:12:59;13.9;80.7
78463;SHT31;67756;51.982;5.648;2023-04-01T14:15:52;13.9;80.6
78463;SHT31;67756;51.982;5.648;2023-04-01T14:18:45;13.9;80.9
78463;SHT31;67756;51.982;5.648;2023-04-01T14:21:23;13.9;79.8
78463;SHT31;67756;51.982;5.648;2023-04-01T14:24:13;13.9;79.7
78463;SHT31;67756;51.982;5.648;2023-04-01T14:27:09;13.9;79.6
78463;SHT31;67756;51.982;5.648;2023-04-01T14:29:55;13.9;79.4
78463;SHT31;67756;51.982;5.648;2023-04-01T14:32:37;13.9;78.5
78463;SHT31;67756;51.982;5.648;2023-04-01T14:35:34;13.9;80.0
78463;SHT31;67756;51.982;5.648;2023-04-01T14:38:20;13.9;80.2
78463;SHT31;67756;51.982;5.648;2023-04-01T14:40:56;13.9;79.7
78463;SHT31;67756;51.982;5.648;2023-04-01T14:43:50;13.9;80.4
78463;SHT31;67756;51.982;5.648;2023-04-01T14:46:52;13.9;79.9
78463;SHT31;67756;51.982;5.648;2023-04-01T14:49:34;14.0;79.5
78463;SHT31;67756;51.982;5.648;2023-04-01T14:52:11;14.0;80.0
78463;SHT31;67756;51.982;5.648;2023-04-01T14:54:44;14.0;79.8
78463;SHT31;67756;51.982;5.648;2023-04-01T14:57:25;14.0;80.2
78463;SHT31;67756;51.982;5.648;2023-04-01T15:00:09;14.0;80.8
78463;SHT31;67756;51.982;5.648;2023-04-01T15:02:56;14.0;80.5
78463;SHT31;67756;51.982;5.648;2023-04-01T15:05:43;14.1;79.8
78463;SHT31;67756;51.982;5.648;2023-04-01T15:08:20;14.1;79.6
78463;SHT31;67756;51.982;5.648;2023-04-01T15:11:13;14.1;78.2
78463;SHT31;67756;51.982;5.648;2023-04-01T15:14:36;14.1;77.8
78463;SHT31;67756;51.982;5.648;2023-04-01T15:17:21;14.1;78.6
78463;SHT31;67756;51.982;5.648;2023-04-01T15:20:08;14.1;78.8
78463;SHT31;67756;51.982;5.648;2023-04-01T15:22:53;14.1;78.6
78463;SHT31;67756;51.982;5.648;2023-04-01T15:25:33;14.1;79.2
78463;SHT31;67756;51.982;5.648;2023-04-01T15:28:17;14.0;79.7
78463;SHT31;67756;51.982;5.648;2023-04-01T15:30:57;14.0;79.1
78463;SHT31;67756;51.982;5.648;2023-04-01T15:33:46;14.0;78.6
78463;SHT31;67756;51.982;5.648;2023-04-01T15:36:24;14.0;77.9
78463;SHT31;67756;51.982;5.648;2023-04-01T15:39:09;14.0;78.3
78463;SHT31;67756;51.982;5.648;2023-04-01T15:41:51;14.0;78.0
78463;SHT31;67756;51.982;5.648;2023-04-01T15:44:40;14.0;78.6
78463;SHT31;67756;51.982;5.648;2023-04-01T15:47:33;14.0;77.9
78463;SHT31;67756;51.982;5.648;2023-04-01T15:50:52;13.9;78.6
78463;SHT31;67756;51.982;5.648;2023-04-01T15:53:37;13.9;78.5
78463;SHT31;67756;51.982;5.648;2023-04-01T15:56:35;13.9;77.3
78463;SHT31;67756;51.982;5.648;2023-04-01T15:59:19;13.9;78.3
78463;SHT31;67756;51.982;5.648;2023-04-01T16:01:58;13.9;77.7
78463;SHT31;67756;51.982;5.648;2023-04-01T16:04:49;13.8;77.8
78463;SHT31;67756;51.982;5.648;2023-04-01T16:07:29;13.8;77.6
78463;SHT31;67756;51.982;5.648;2023-04-01T16:11:31;13.8;78.2
78463;SHT31;67756;51.982;5.648;2023-04-01T16:14:20;13.8;76.9
78463;SHT31;67756;51.982;5.648;2023-04-01T16:17:11;13.8;77.9
78463;SHT31;67756;51.982;5.648;2023-04-01T16:19:56;13.7;76.5
78463;SHT31;67756;51.982;5.648;2023-04-01T16:22:32;13.7;77.6
78463;SHT31;67756;51.982;5.648;2023-04-01T16:25:20;13.7;77.3
78463;SHT31;67756;51.982;5.648;2023-04-01T16:27:58;13.7;77.1
78463;SHT31;67756;51.982;5.648;2023-04-01T16:30:39;13.6;77.0
78463;SHT31;67756;51.982;5.648;2023-04-01T16:33:15;13.6;76.7
78463;SHT31;67756;51.982;5.648;2023-04-01T16:35:57;13.6;76.7
78463;SHT31;67756;51.982;5.648;2023-04-01T16:38:38;13.6;76.6
78463;SHT31;67756;51.982;5.648;2023-04-01T16:41:17;13.6;76.8
78463;SHT31;67756;51.982;5.648;2023-04-01T16:43:51;13.6;75.9
78463;SHT31;67756;51.982;5.648;2023-04-01T16:46:32;13.5;76.2
78463;SHT31;67756;51.982;5.648;2023-04-01T16:49:23;13.5;76.7
78463;SHT31;67756;51.982;5.648;2023-04-01T16:52:13;13.5;77.1
78463;SHT31;67756;51.982;5.648;2023-04-01T16:54:45;13.5;77.5
78463;SHT31;67756;51.982;5.648;2023-04-01T16:57:20;13.5;76.4
78463;SHT31;67756;51.982;5.648;2023-04-01T16:59:58;13.5;76.8
78463;SHT31;67756;51.982;5.648;2023-04-01T17:02:37;13.4;76.0
78463;SHT31;67756;51.982;5.648;2023-04-01T17:05:10;13.4;76.7
78463;SHT31;67756;51.982;5.648;2023-04-01T17:07:47;13.4;75.6
78463;SHT31;67756;51.982;5.648;2023-04-01T17:10:36;13.4;75.7
78463;SHT31;67756;51.982;5.648;2023-04-01T17:13:37;13.4;75.4
78463;SHT31;67756;51.982;5.648;2023-04-01T17:19:18;13.3;75.7
78463;SHT31;67756;51.982;5.648;2023-04-01T17:22:01;13.3;75.1
78463;SHT31;67756;51.982;5.648;2023-04-01T17:24:46;13.3;74.8
78463;SHT31;67756;51.982;5.648;2023-04-01T17:27:30;13.4;73.9
78463;SHT31;67756;51.982;5.648;2023-04-01T17:30:19;13.4;73.3
78463;SHT31;67756;51.982;5.648;2023-04-01T17:33:08;13.4;74.3
78463;SHT31;67756;51.982;5.648;2023-04-01T17:35:43;13.4;73.6
78463;SHT31;67756;51.982;5.648;2023-04-01T17:38:34;13.4;73.7
78463;SHT31;67756;51.982;5.648;2023-04-01T17:41:08;13.4;73.6
78463;SHT31;67756;51.982;5.648;2023-04-01T17:43:50;13.3;73.9
78463;SHT31;67756;51.982;5.648;2023-04-01T17:46:35;13.3;73.4
78463;SHT31;67756;51.982;5.648;2023-04-01T17:49:19;13.3;73.1
78463;SHT31;67756;51.982;5.648;2023-04-01T17:52:02;13.2;72.8
78463;SHT31;67756;51.982;5.648;2023-04-01T17:54:44;13.2;72.8
78463;SHT31;67756;51.982;5.648;2023-04-01T17:57:37;13.1;73.3
78463;SHT31;67756;51.982;5.648;2023-04-01T18:00:18;13.1;73.6
78463;SHT31;67756;51.982;5.648;2023-04-01T18:03:04;13.1;74.1
78463;SHT31;67756;51.982;5.648;2023-04-01T18:05:54;13.0;73.8
78463;SHT31;67756;51.982;5.648;2023-04-01T18:08:40;13.0;74.5
78463;SHT31;67756;51.982;5.648;2023-04-01T18:11:24;12.9;72.5
78463;SHT31;67756;51.982;5.648;2023-04-01T18:14:34;12.9;73.1